This is the latest recevied weather packets stored in our database for station/object WX6YYZ. If no packets are shown the sender has not sent any weather packets the latest 10 day(s).
| Time | Temp. | Humidity | Pressure | Rain* | Wind** | Luminosity | Snow |
|---|---|---|---|---|---|---|---|
| 1777613568 | 15° C | 83% | 1013.9 hPa | 0 mm | - | - | - |
| 1777613267 | 15° C | 83% | 1013.5 hPa | 0 mm | - | - | - |
| 1777612063 | 15.56° C | 82% | 1013.5 hPa | 0 mm | - | - | - |
| 1777609166 | 16.11° C | 79% | 1013.2 hPa | 0 mm | - | - | - |
| 1777607599 | 16.67° C | 76% | 1012.5 hPa | 0 mm | - | - | - |
| 1777606997 | 16.67° C | 76% | 1012.5 hPa | 0 mm | - | - | - |
| 1777604191 | 17.22° C | 74% | 1011.9 hPa | 0 mm | - | - | - |
| 1777598648 | 20° C | 64% | 1010.5 hPa | 0 mm | - | - | - |
| 1777598347 | 20° C | 64% | 1010.5 hPa | 0 mm | - | - | - |
| 1777597445 | 20.56° C | 64% | 1010.5 hPa | 0 mm | - | - | - |
| 1777597144 | 20.56° C | 62% | 1010.5 hPa | 0 mm | - | - | - |
| 1777596241 | 20.56° C | 62% | 1010.2 hPa | 0 mm | - | - | - |
| 1777594705 | 21.67° C | 60% | 1010.2 hPa | 0 mm | - | - | - |
| 1777593499 | 21.67° C | 58% | 1010.2 hPa | 0 mm | - | - | - |
| 1777591963 | 22.78° C | 56% | 1009.8 hPa | 0 mm | - | - | - |
| 1777590665 | 22.78° C | 55% | 1009.8 hPa | 0 mm | - | - | - |
| 1777589098 | 22.78° C | 53% | 1009.8 hPa | 0 mm | - | - | - |
| 1777588497 | 22.78° C | 52% | 1010.2 hPa | 0 mm | - | - | - |
| 1777587895 | 23.33° C | 51% | 1010.2 hPa | 0 mm | - | - | - |
| 1777583888 | 23.33° C | 54% | 1010.5 hPa | 0 mm | - | - | - |
| 1777578705 | 21.67° C | 53% | 1011.2 hPa | 0 mm | - | - | - |
| 1777574095 | 20° C | 59% | 1012.2 hPa | 0 mm | - | - | - |
| 1777571031 | 18.89° C | 64% | 1012.9 hPa | 0 mm | - | - | - |
| 1777569827 | 18.89° C | 63% | 1012.9 hPa | 0 mm | - | - | - |
| 1777569526 | 18.33° C | 65% | 1012.9 hPa | 0 mm | - | - | - |
* Rain latest hour (hover to see other rain measurements)
** Current wind speed in m/s (hover to see current wind gust speed)